createdAt,value
2019-03-29T00:00:38.325Z,39.40
2019-03-29T00:01:38.284Z,38.70
2019-03-29T00:02:38.275Z,39.00
2019-03-29T00:03:38.257Z,37.70
2019-03-29T00:04:38.267Z,38.50
2019-03-29T00:05:38.238Z,37.10
2019-03-29T00:06:38.313Z,37.90
2019-03-29T00:07:39.893Z,38.20
2019-03-29T00:08:38.215Z,37.20
2019-03-29T00:09:38.214Z,38.00
2019-03-29T00:10:38.188Z,37.50
2019-03-29T00:11:38.220Z,36.20
2019-03-29T00:12:38.182Z,34.60
2019-03-29T00:13:38.153Z,35.70
2019-03-29T00:14:38.158Z,35.40
2019-03-29T00:15:38.135Z,35.90
2019-03-29T00:16:38.125Z,34.40
2019-03-29T00:17:38.130Z,36.30
2019-03-29T00:18:38.097Z,35.70
2019-03-29T00:19:38.091Z,34.80
2019-03-29T00:20:38.079Z,35.40
2019-03-29T00:21:39.047Z,36.20
2019-03-29T00:22:38.089Z,35.90
2019-03-29T00:23:38.121Z,36.00
2019-03-29T00:24:38.052Z,35.20
2019-03-29T00:25:38.023Z,36.40
2019-03-29T00:26:38.011Z,36.50
2019-03-29T00:27:38.022Z,36.80
2019-03-29T00:28:37.996Z,37.00
2019-03-29T00:29:37.984Z,36.10
2019-03-29T05:00:37.314Z,34.30
2019-03-29T05:01:37.311Z,17.40
2019-03-29T05:02:37.286Z,17.30
2019-03-29T05:03:37.273Z,16.60
2019-03-29T05:04:37.267Z,16.60
2019-03-29T05:05:37.249Z,17.30
2019-03-29T05:06:37.361Z,16.60
2019-03-29T05:07:44.776Z,16.30
2019-03-29T05:08:37.243Z,17.00
2019-03-29T05:09:37.209Z,17.30
2019-03-29T05:10:37.198Z,17.70
2019-03-29T05:11:37.190Z,16.30
2019-03-29T05:12:37.195Z,17.00
2019-03-29T05:13:37.180Z,17.50
2019-03-29T05:14:37.164Z,16.60
2019-03-29T05:15:37.159Z,17.10
2019-03-29T05:16:37.156Z,17.40
2019-03-29T05:17:37.123Z,17.20
2019-03-29T05:18:37.122Z,16.80
2019-03-29T05:19:37.107Z,17.70
2019-03-29T05:20:37.095Z,18.30
2019-03-29T05:21:37.115Z,17.10
2019-03-29T05:22:37.082Z,16.60
2019-03-29T05:23:37.062Z,16.60
2019-03-29T05:24:37.052Z,17.00
2019-03-29T05:25:37.048Z,16.50
2019-03-29T05:26:37.033Z,17.00
2019-03-29T05:27:37.034Z,18.00
2019-03-29T05:28:37.050Z,17.10
2019-03-29T05:29:36.994Z,16.50
2019-03-29T05:30:36.986Z,17.20
2019-03-29T05:31:36.977Z,17.30
2019-03-29T05:32:36.994Z,17.30
2019-03-29T05:33:36.957Z,17.50
2019-03-29T05:34:36.947Z,16.80
2019-03-29T05:35:36.943Z,17.40
2019-03-29T05:36:36.920Z,16.50
2019-03-29T05:37:36.930Z,17.60
2019-03-29T05:38:36.902Z,17.40
2019-03-29T05:39:36.891Z,17.40
2019-03-29T05:40:36.884Z,16.80
2019-03-29T05:41:36.865Z,17.20
2019-03-29T05:42:36.854Z,16.70
2019-03-29T05:43:36.860Z,16.90
2019-03-29T05:44:36.841Z,16.40
2019-03-29T05:45:36.832Z,17.50
2019-03-29T05:46:36.819Z,16.30
2019-03-29T05:47:36.835Z,17.20
2019-03-29T05:48:36.790Z,16.40
2019-03-29T05:49:36.779Z,14.90
2019-03-29T05:50:37.038Z,15.00
2019-03-29T05:51:45.057Z,14.40
2019-03-29T05:53:57.289Z,14.40
2019-03-29T05:56:37.544Z,13.70
2019-03-29T05:58:46.371Z,13.20
2019-03-29T06:00:55.176Z,13.00
2019-03-29T06:01:55.168Z,12.70
2019-03-29T06:02:55.167Z,12.70
2019-03-29T06:03:55.159Z,12.80
2019-03-29T06:04:55.135Z,12.70
2019-03-29T06:05:55.122Z,12.10
2019-03-29T06:06:55.121Z,12.90
2019-03-29T06:07:55.113Z,12.10
2019-03-29T06:08:55.109Z,12.50
2019-03-29T06:09:55.078Z,12.20
2019-03-29T06:10:55.070Z,12.70
2019-03-29T06:11:55.066Z,12.10
2019-03-29T06:12:55.050Z,12.40
2019-03-29T06:13:55.041Z,12.00
2019-03-29T06:14:55.039Z,11.50
2019-03-29T06:15:55.091Z,11.80
2019-03-29T06:16:55.009Z,12.10
2019-03-29T06:17:54.999Z,11.50
2019-03-29T06:18:55.031Z,11.90
2019-03-29T06:19:54.990Z,11.80
2019-03-29T06:20:54.966Z,11.60
2019-03-29T06:21:54.993Z,11.50
2019-03-29T06:22:54.939Z,11.40
2019-03-29T06:23:54.941Z,11.10
2019-03-29T06:24:54.941Z,10.90
2019-03-29T06:25:54.911Z,10.60
2019-03-29T06:26:54.911Z,10.80
2019-03-29T06:27:54.891Z,10.60
2019-03-29T06:28:54.911Z,10.70
2019-03-29T06:29:54.867Z,10.20
2019-03-29T06:30:54.880Z,11.30
2019-03-29T06:31:54.849Z,10.50
2019-03-29T06:32:54.838Z,10.80
2019-03-29T06:33:54.844Z,10.30
2019-03-29T06:34:54.826Z,10.50
2019-03-29T06:35:54.829Z,10.50
2019-03-29T06:36:54.795Z,10.60
2019-03-29T06:38:03.330Z,10.80
2019-03-29T06:39:02.301Z,10.20
2019-03-29T06:40:03.566Z,10.90
2019-03-29T06:41:03.745Z,10.90
2019-03-29T06:42:02.303Z,10.60
2019-03-29T06:42:54.728Z,10.90
2019-03-29T06:43:54.714Z,10.10
2019-03-29T06:44:54.704Z,10.20
2019-03-29T06:45:54.698Z,9.90
2019-03-29T06:46:54.723Z,10.10
2019-03-29T06:47:54.700Z,10.50
2019-03-29T06:48:54.673Z,10.80
2019-03-29T06:49:54.660Z,10.30
2019-03-29T06:50:54.647Z,10.80
2019-03-29T06:51:54.637Z,10.80
2019-03-29T06:52:54.743Z,10.40
2019-03-29T06:53:54.616Z,10.10
2019-03-29T06:54:54.609Z,10.00
2019-03-29T06:55:54.591Z,10.70
2019-03-29T06:56:54.605Z,10.40
2019-03-29T06:57:54.570Z,10.60
2019-03-29T06:58:54.562Z,10.00
2019-03-29T06:59:54.565Z,10.50
2019-03-29T07:00:54.541Z,10.70
2019-03-29T07:01:54.527Z,10.90
2019-03-29T07:02:54.529Z,10.30
2019-03-29T07:03:54.500Z,9.70
2019-03-29T07:04:54.493Z,10.40
2019-03-29T07:05:54.483Z,10.20
2019-03-29T07:06:54.484Z,9.80
2019-03-29T07:07:54.500Z,9.70
2019-03-29T07:08:54.451Z,9.80
2019-03-29T07:09:54.439Z,10.00
2019-03-29T07:10:54.438Z,9.90
2019-03-29T07:11:54.426Z,9.80
2019-03-29T07:12:56.366Z,9.90
2019-03-29T07:13:57.650Z,10.00
2019-03-29T07:14:54.400Z,9.30
2019-03-29T07:15:54.374Z,9.90
2019-03-29T07:16:54.366Z,10.60
2019-03-29T07:17:54.354Z,9.50
2019-03-29T07:18:54.365Z,10.10
2019-03-29T07:19:54.358Z,9.90
2019-03-29T07:20:54.326Z,10.30
2019-03-29T07:21:54.316Z,9.90
2019-03-29T07:22:54.304Z,9.40
2019-03-29T07:23:54.288Z,9.70
2019-03-29T07:24:54.320Z,9.60
2019-03-29T07:25:56.452Z,10.00
2019-03-29T07:26:54.258Z,9.90
2019-03-29T07:27:54.244Z,9.60
2019-03-29T07:28:54.237Z,9.30
2019-03-29T07:29:54.227Z,9.40
2019-03-29T07:30:54.234Z,9.90
2019-03-29T07:31:54.210Z,10.20
2019-03-29T07:32:54.198Z,9.60
2019-03-29T07:33:54.188Z,9.30
2019-03-29T07:34:54.215Z,9.00
2019-03-29T07:35:54.163Z,9.60
2019-03-29T07:36:54.157Z,9.20
2019-03-29T07:37:54.138Z,9.20
2019-03-29T07:38:54.138Z,9.70
2019-03-29T07:39:54.177Z,9.10
2019-03-29T07:40:54.123Z,8.90
2019-03-29T07:41:54.097Z,9.50
2019-03-29T07:42:54.089Z,8.80
2019-03-29T07:43:54.082Z,9.00
2019-03-29T07:44:54.068Z,8.10
2019-03-29T07:45:54.059Z,9.20
2019-03-29T07:46:54.063Z,9.20
2019-03-29T07:47:54.065Z,8.70
2019-03-29T07:48:54.020Z,9.20
2019-03-29T07:49:54.008Z,8.80
2019-03-29T07:50:53.998Z,8.60
2019-03-29T07:51:54.012Z,9.30
2019-03-29T07:52:53.982Z,8.80
2019-03-29T07:53:54.023Z,8.10
2019-03-29T07:54:53.996Z,8.10
2019-03-29T07:55:53.942Z,8.80
2019-03-29T07:56:53.937Z,8.30
2019-03-29T07:57:53.937Z,8.80
2019-03-29T07:58:53.927Z,8.50
2019-03-29T07:59:53.898Z,8.40
2019-03-29T08:00:53.903Z,9.50
2019-03-29T08:01:53.897Z,9.30
2019-03-29T08:02:55.195Z,8.90
2019-03-29T08:03:53.860Z,9.80
2019-03-29T08:04:53.859Z,10.00
2019-03-29T08:05:53.839Z,9.60
2019-03-29T08:06:53.826Z,10.20
2019-03-29T08:07:53.832Z,8.80
2019-03-29T08:08:53.801Z,8.90
2019-03-29T08:09:54.254Z,9.80
2019-03-29T08:10:54.290Z,9.30
2019-03-29T08:11:55.143Z,9.30
2019-03-29T08:12:53.761Z,8.90
2019-03-29T08:13:53.782Z,9.00
2019-03-29T08:14:53.748Z,9.50
2019-03-29T08:15:53.736Z,9.30
2019-03-29T08:16:53.736Z,9.90
2019-03-29T08:17:53.753Z,9.20
2019-03-29T08:18:53.720Z,9.60
2019-03-29T08:20:19.044Z,9.80
2019-03-29T08:20:54.680Z,10.00
2019-03-29T08:21:53.667Z,10.40
2019-03-29T08:22:53.663Z,9.50
2019-03-29T08:23:53.672Z,9.60
2019-03-29T08:24:53.655Z,10.10
2019-03-29T08:25:53.623Z,9.50
2019-03-29T08:26:53.613Z,9.90
2019-03-29T08:27:53.602Z,9.50
2019-03-29T08:28:53.617Z,10.00
2019-03-29T08:29:53.587Z,9.90
2019-03-29T08:30:53.591Z,9.80
2019-03-29T08:31:55.559Z,9.60
2019-03-29T08:32:53.562Z,10.00
2019-03-29T08:33:53.537Z,10.30
2019-03-29T08:34:53.531Z,10.20
2019-03-29T08:35:53.518Z,10.10
2019-03-29T08:36:53.523Z,10.40
2019-03-29T08:37:53.545Z,9.80
2019-03-29T08:38:53.479Z,10.50
2019-03-29T08:39:56.343Z,10.80
2019-03-29T08:40:53.486Z,11.40
2019-03-29T08:42:00.213Z,11.60
2019-03-29T08:42:54.441Z,11.40
2019-03-29T08:43:53.432Z,11.10
2019-03-29T08:44:53.424Z,11.00
2019-03-29T08:45:53.410Z,11.10
2019-03-29T08:46:53.436Z,11.10
2019-03-29T08:47:53.388Z,10.40
2019-03-29T08:48:53.399Z,11.00
2019-03-29T08:49:53.373Z,10.70
2019-03-29T08:50:53.377Z,10.70
2019-03-29T08:51:53.347Z,10.90
2019-03-29T08:52:53.337Z,11.00
2019-03-29T08:53:53.323Z,10.40
2019-03-29T08:54:53.338Z,10.90
2019-03-29T08:55:53.356Z,11.30
2019-03-29T08:56:53.288Z,10.90
2019-03-29T08:57:53.279Z,11.00
2019-03-29T08:59:00.909Z,10.90
2019-03-29T09:00:00.815Z,10.00
2019-03-29T09:01:00.917Z,10.20
2019-03-29T09:01:53.247Z,10.60
2019-03-29T09:03:00.762Z,11.20
2019-03-29T09:04:04.638Z,10.80
2019-03-29T09:04:54.210Z,10.50
2019-03-29T09:05:53.207Z,10.60
2019-03-29T09:06:54.300Z,9.80
2019-03-29T09:07:53.166Z,9.90
2019-03-29T09:08:53.165Z,10.50
2019-03-29T09:09:53.154Z,10.00
2019-03-29T09:10:53.154Z,10.30
2019-03-29T09:11:53.140Z,10.20
2019-03-29T09:12:53.117Z,10.10
2019-03-29T09:13:53.144Z,10.30
2019-03-29T09:14:53.099Z,9.90
2019-03-29T09:15:53.121Z,10.20
2019-03-29T09:16:53.093Z,10.40
2019-03-29T09:17:53.077Z,10.50
2019-03-29T09:18:53.062Z,10.70
2019-03-29T09:19:53.039Z,10.10
2019-03-29T09:20:53.056Z,10.40
2019-03-29T09:21:53.047Z,10.00
2019-03-29T09:22:53.006Z,9.60
2019-03-29T09:23:53.042Z,11.40
2019-03-29T09:24:52.994Z,11.50
2019-03-29T09:25:52.981Z,10.30
2019-03-29T09:26:52.993Z,9.80
2019-03-29T09:27:52.993Z,8.30
2019-03-29T09:28:52.960Z,8.90
2019-03-29T09:29:52.939Z,9.40
2019-03-29T09:30:56.219Z,9.50
2019-03-29T09:31:52.918Z,9.20
2019-03-29T09:32:52.922Z,9.50
2019-03-29T09:33:52.900Z,9.90
2019-03-29T09:34:52.925Z,6.90
2019-03-29T09:35:52.876Z,10.00
2019-03-29T09:36:52.870Z,9.50
2019-03-29T09:37:56.285Z,9.20
2019-03-29T09:38:52.864Z,8.50
2019-03-29T09:39:52.827Z,8.50
2019-03-29T09:40:58.905Z,8.70
2019-03-29T09:41:53.832Z,8.50
2019-03-29T09:43:06.643Z,8.70
2019-03-29T09:43:54.677Z,8.90
2019-03-29T09:44:52.778Z,9.80
2019-03-29T09:45:52.766Z,10.20
2019-03-29T09:46:52.764Z,9.30
2019-03-29T09:47:55.794Z,9.00
2019-03-29T09:48:52.777Z,8.70
2019-03-29T09:49:52.746Z,8.80
2019-03-29T09:50:52.716Z,8.90
2019-03-29T09:51:52.699Z,8.90
2019-03-29T09:52:52.690Z,8.90
2019-03-29T09:53:52.681Z,8.70
2019-03-29T09:54:54.191Z,8.40
2019-03-29T09:55:53.513Z,7.90
2019-03-29T09:56:52.648Z,7.80
2019-03-29T09:57:52.663Z,8.00
2019-03-29T09:58:52.632Z,8.40
2019-03-29T09:59:52.614Z,8.00
2019-03-29T10:00:52.657Z,8.10
2019-03-29T10:01:54.212Z,7.70
2019-03-29T10:02:52.591Z,7.70
2019-03-29T10:03:52.585Z,8.10
2019-03-29T10:04:52.563Z,7.60
2019-03-29T10:05:52.568Z,8.30
2019-03-29T10:06:52.591Z,8.10
2019-03-29T10:07:52.534Z,8.30
2019-03-29T10:08:53.510Z,7.90
2019-03-29T10:09:52.514Z,7.70
2019-03-29T10:10:52.500Z,7.00
2019-03-29T10:11:52.508Z,7.50
2019-03-29T10:12:52.493Z,7.00
2019-03-29T10:13:52.477Z,7.40
2019-03-29T10:14:52.487Z,7.00
2019-03-29T10:15:52.457Z,7.60
2019-03-29T10:16:52.436Z,7.40
2019-03-29T10:17:52.441Z,7.10
2019-03-29T10:18:52.415Z,7.20
2019-03-29T10:19:52.428Z,9.60
2019-03-29T10:20:52.390Z,6.90
2019-03-29T10:21:52.401Z,7.30
2019-03-29T10:22:52.371Z,7.50
2019-03-29T10:23:52.355Z,6.90
2019-03-29T10:24:52.348Z,8.60
2019-03-29T10:25:52.335Z,8.30
2019-03-29T10:26:52.366Z,7.70
2019-03-29T10:27:52.349Z,5.90
2019-03-29T10:28:52.320Z,5.70
2019-03-29T10:29:52.296Z,6.40
2019-03-29T10:30:52.289Z,6.70
2019-03-29T10:31:52.269Z,7.90
2019-03-29T10:32:55.366Z,6.90
2019-03-29T10:33:52.253Z,5.50
2019-03-29T10:34:52.239Z,6.10
2019-03-29T10:35:53.035Z,5.70
2019-03-29T10:36:52.220Z,5.20
2019-03-29T10:37:52.224Z,4.90
2019-03-29T10:38:52.232Z,5.20
2019-03-29T10:39:52.198Z,6.40
2019-03-29T10:40:52.179Z,6.40
2019-03-29T10:41:52.169Z,6.20
2019-03-29T10:42:57.978Z,6.50
2019-03-29T10:43:53.138Z,5.80
2019-03-29T10:44:52.155Z,5.40
2019-03-29T10:45:52.121Z,6.30
2019-03-29T10:46:52.108Z,6.50
2019-03-29T10:47:52.132Z,7.80
2019-03-29T10:48:52.093Z,7.40
2019-03-29T10:49:52.086Z,7.40
2019-03-29T10:50:52.071Z,6.30
2019-03-29T10:51:52.085Z,6.40
2019-03-29T10:52:52.067Z,7.20
2019-03-29T10:53:52.144Z,6.60
2019-03-29T10:54:52.030Z,6.60
2019-03-29T10:55:52.014Z,6.80
2019-03-29T10:56:52.013Z,6.40
2019-03-29T10:57:52.012Z,6.00
2019-03-29T10:58:52.006Z,5.40
2019-03-29T10:59:51.976Z,4.90
2019-03-29T11:00:51.963Z,5.30
2019-03-29T11:01:51.959Z,5.90
2019-03-29T11:02:51.945Z,6.30
2019-03-29T11:03:51.959Z,6.10
2019-03-29T11:04:51.936Z,5.40
2019-03-29T11:05:51.916Z,5.50
2019-03-29T11:06:51.895Z,6.10
2019-03-29T11:07:51.891Z,5.90
2019-03-29T11:08:51.901Z,6.20
2019-03-29T11:09:51.874Z,5.80
2019-03-29T11:10:51.853Z,5.80
2019-03-29T11:11:51.847Z,5.50
2019-03-29T11:12:51.836Z,5.60
2019-03-29T11:13:51.843Z,5.50
2019-03-29T11:14:51.837Z,5.30
2019-03-29T11:15:51.839Z,5.50
2019-03-29T11:16:51.790Z,5.50
2019-03-29T11:17:51.778Z,5.20
2019-03-29T11:18:51.774Z,5.20
2019-03-29T11:19:51.851Z,5.10
2019-03-29T11:20:51.755Z,5.40
2019-03-29T11:21:51.879Z,4.90
2019-03-29T11:22:51.731Z,4.90
2019-03-29T11:23:51.716Z,5.90
2019-03-29T11:24:51.719Z,5.00
2019-03-29T11:25:51.702Z,5.20
2019-03-29T11:26:51.686Z,4.90
2019-03-29T11:27:51.691Z,4.90
2019-03-29T11:28:51.660Z,4.80
2019-03-29T11:29:51.666Z,5.00
2019-03-29T11:30:51.646Z,4.80
2019-03-29T11:31:51.634Z,5.10
2019-03-29T11:32:51.624Z,5.10
2019-03-29T11:33:51.763Z,4.90
2019-03-29T11:34:51.615Z,6.40
2019-03-29T11:35:51.609Z,4.80
2019-03-29T11:36:52.835Z,4.90
2019-03-29T11:37:51.565Z,4.50
2019-03-29T11:38:51.558Z,4.90
2019-03-29T11:39:51.565Z,4.90
2019-03-29T11:40:51.542Z,4.60
2019-03-29T11:41:51.540Z,5.50
2019-03-29T11:42:51.515Z,5.30
2019-03-29T11:43:51.506Z,5.10
2019-03-29T11:44:51.497Z,5.20
2019-03-29T11:45:51.510Z,5.30
2019-03-29T11:46:51.490Z,5.80
2019-03-29T11:47:51.459Z,6.00
2019-03-29T11:48:51.454Z,5.80
2019-03-29T11:49:52.872Z,5.10
2019-03-29T11:50:51.436Z,5.30
2019-03-29T11:51:51.453Z,4.70
2019-03-29T11:52:51.429Z,5.10
2019-03-29T11:53:51.549Z,5.10
2019-03-29T11:54:51.387Z,5.00
2019-03-29T11:55:51.377Z,5.00
2019-03-29T11:56:51.375Z,5.20
2019-03-29T11:57:51.378Z,5.60
2019-03-29T11:58:51.365Z,5.30
2019-03-29T11:59:51.332Z,5.80
2019-03-29T12:00:51.326Z,5.20
2019-03-29T12:01:51.310Z,5.70
2019-03-29T12:02:51.314Z,5.60
2019-03-29T12:03:51.306Z,5.40
2019-03-29T12:04:51.301Z,5.30
2019-03-29T12:05:51.273Z,4.80
2019-03-29T12:06:51.262Z,4.60
2019-03-29T12:07:51.249Z,4.80
2019-03-29T12:08:51.254Z,6.20
2019-03-29T12:09:51.223Z,5.60
2019-03-29T12:10:51.278Z,5.60
2019-03-29T12:11:51.208Z,5.80
2019-03-29T12:12:51.199Z,5.40
2019-03-29T12:13:51.223Z,5.10
2019-03-29T12:14:51.175Z,5.30
2019-03-29T12:15:51.164Z,5.60
2019-03-29T12:16:51.156Z,5.30
2019-03-29T12:17:51.167Z,5.10
2019-03-29T12:18:51.142Z,5.40
2019-03-29T12:19:51.137Z,5.60
2019-03-29T12:20:54.176Z,5.60
2019-03-29T12:21:51.095Z,5.50
2019-03-29T12:22:51.090Z,5.60
2019-03-29T12:23:51.080Z,5.30
2019-03-29T12:24:51.130Z,4.60
2019-03-29T12:25:51.068Z,5.20
2019-03-29T12:26:51.048Z,6.70
2019-03-29T12:27:51.035Z,6.30
2019-03-29T12:28:51.021Z,6.10
2019-03-29T12:29:51.018Z,6.00
2019-03-29T12:30:51.035Z,5.90
2019-03-29T12:31:50.992Z,6.20
2019-03-29T12:32:50.979Z,5.40
2019-03-29T12:33:50.967Z,5.60
2019-03-29T12:34:50.975Z,5.50
2019-03-29T12:35:50.968Z,5.10
2019-03-29T12:36:50.961Z,5.30
2019-03-29T12:37:50.933Z,5.70
2019-03-29T12:38:50.923Z,5.50
2019-03-29T12:39:50.909Z,4.80
2019-03-29T12:40:50.914Z,5.00
2019-03-29T12:41:50.883Z,5.40
2019-03-29T12:42:50.889Z,4.70
2019-03-29T12:43:55.707Z,4.40
2019-03-29T12:44:51.860Z,4.30
2019-03-29T12:45:50.855Z,4.80
2019-03-29T12:46:50.832Z,5.00
2019-03-29T12:47:50.823Z,4.60
2019-03-29T12:48:50.918Z,4.80
2019-03-29T12:49:50.807Z,5.40
2019-03-29T12:50:50.813Z,5.50
2019-03-29T12:51:50.805Z,5.30
2019-03-29T12:52:50.776Z,5.10
2019-03-29T12:53:50.754Z,4.60
2019-03-29T12:54:50.775Z,5.20
2019-03-29T12:55:50.739Z,5.40
2019-03-29T12:56:50.760Z,4.70
2019-03-29T12:57:50.719Z,5.60
2019-03-29T12:58:50.721Z,6.10
2019-03-29T12:59:50.708Z,7.30
2019-03-29T13:00:50.683Z,5.60
2019-03-29T13:01:50.690Z,5.50
2019-03-29T13:02:50.664Z,4.90
2019-03-29T13:03:50.652Z,5.20
2019-03-29T13:04:50.660Z,5.30
2019-03-29T13:05:50.628Z,5.40
2019-03-29T13:06:50.634Z,4.70
2019-03-29T13:07:53.054Z,4.50
2019-03-29T13:08:50.601Z,5.00
2019-03-29T13:09:50.594Z,4.40
2019-03-29T13:10:50.593Z,4.40
2019-03-29T13:11:50.583Z,4.90
2019-03-29T13:12:50.555Z,5.20
2019-03-29T13:13:50.542Z,6.60
2019-03-29T13:14:50.533Z,5.90
2019-03-29T13:15:50.527Z,4.90
2019-03-29T13:16:50.551Z,4.80
2019-03-29T13:17:50.504Z,4.10
2019-03-29T13:18:53.616Z,5.00
2019-03-29T13:19:50.491Z,5.60
2019-03-29T13:20:50.492Z,5.40
2019-03-29T13:21:50.480Z,5.00
2019-03-29T13:22:50.474Z,4.70
2019-03-29T13:23:50.438Z,4.80
2019-03-29T13:24:50.459Z,5.50
2019-03-29T13:25:50.414Z,5.40
2019-03-29T13:26:50.410Z,6.50
2019-03-29T13:27:50.396Z,4.70
2019-03-29T13:28:50.403Z,4.70
2019-03-29T13:29:50.380Z,6.70
2019-03-29T13:30:50.388Z,5.60
2019-03-29T13:31:50.371Z,3.90
2019-03-29T13:32:50.341Z,5.30
2019-03-29T13:33:50.352Z,4.60
2019-03-29T13:34:51.431Z,4.00
2019-03-29T13:35:50.313Z,3.70
2019-03-29T13:36:50.333Z,3.80
2019-03-29T13:37:50.285Z,3.70
2019-03-29T13:38:50.276Z,3.90
2019-03-29T13:39:50.270Z,4.20
2019-03-29T13:40:50.281Z,4.00
2019-03-29T13:41:50.259Z,6.70
2019-03-29T13:42:50.238Z,4.50
2019-03-29T13:43:50.272Z,4.00
2019-03-29T13:44:50.214Z,3.90
2019-03-29T13:45:50.222Z,4.00
2019-03-29T13:46:50.208Z,4.40
2019-03-29T13:47:50.190Z,4.40
2019-03-29T13:48:50.174Z,6.10
2019-03-29T13:49:50.159Z,4.70
2019-03-29T13:50:50.190Z,4.10
2019-03-29T13:51:50.156Z,4.90
2019-03-29T13:52:50.135Z,4.50
2019-03-29T13:53:50.123Z,4.50
2019-03-29T13:54:50.123Z,4.60
2019-03-29T13:55:50.098Z,4.20
2019-03-29T13:56:50.119Z,4.10
2019-03-29T13:57:50.072Z,3.60
2019-03-29T13:58:50.064Z,3.30
2019-03-29T13:59:50.056Z,7.40
2019-03-29T14:00:50.065Z,4.60
2019-03-29T14:01:50.036Z,3.80
2019-03-29T14:02:50.042Z,4.70
2019-03-29T14:03:50.011Z,4.10
2019-03-29T14:04:49.999Z,3.70
2019-03-29T14:05:50.012Z,5.20
2019-03-29T14:06:49.980Z,3.60
2019-03-29T14:07:49.970Z,3.60
2019-03-29T14:08:49.989Z,3.50
2019-03-29T14:09:49.949Z,3.90
2019-03-29T14:10:49.938Z,4.30
2019-03-29T14:11:49.947Z,4.50
2019-03-29T14:12:49.921Z,4.10
2019-03-29T14:13:49.909Z,4.00
2019-03-29T14:14:49.906Z,4.10
2019-03-29T14:15:49.900Z,3.20
2019-03-29T14:16:49.886Z,3.70
2019-03-29T14:17:49.860Z,3.70
2019-03-29T14:18:49.852Z,8.80
2019-03-29T14:19:49.843Z,4.40
2019-03-29T14:20:49.854Z,4.30
2019-03-29T14:21:49.839Z,3.70
2019-03-29T14:22:49.809Z,3.50
2019-03-29T14:23:49.799Z,3.30
2019-03-29T14:24:49.791Z,4.70
2019-03-29T14:25:49.782Z,3.50
2019-03-29T14:26:49.777Z,4.00
2019-03-29T14:27:49.777Z,4.10
2019-03-29T14:28:49.747Z,9.10
2019-03-29T14:30:03.189Z,3.60
2019-03-29T14:30:50.733Z,3.60
2019-03-29T14:31:49.715Z,3.30
2019-03-29T14:32:49.790Z,3.50
2019-03-29T14:33:49.734Z,3.20
2019-03-29T14:34:49.703Z,3.30
2019-03-29T14:35:49.670Z,3.00
2019-03-29T14:36:49.658Z,2.80
2019-03-29T14:37:49.662Z,3.10
2019-03-29T14:38:49.646Z,3.20
2019-03-29T14:39:49.643Z,2.80
2019-03-29T14:40:49.628Z,3.10
2019-03-29T14:41:49.620Z,3.40
2019-03-29T14:42:49.596Z,3.70
2019-03-29T14:43:49.589Z,3.50
2019-03-29T14:44:52.832Z,3.60
2019-03-29T14:45:49.580Z,3.20
2019-03-29T14:46:49.559Z,3.40
2019-03-29T14:47:49.544Z,3.30
2019-03-29T14:48:49.529Z,3.60
2019-03-29T14:49:49.542Z,3.40
2019-03-29T14:50:49.511Z,3.10
2019-03-29T14:51:49.513Z,3.10
2019-03-29T14:52:49.499Z,2.90
2019-03-29T14:53:49.481Z,3.30
2019-03-29T14:54:49.475Z,3.70
2019-03-29T14:55:49.480Z,3.20
2019-03-29T14:56:49.449Z,3.40
2019-03-29T14:57:49.441Z,3.20
2019-03-29T14:58:49.445Z,3.30
2019-03-29T14:59:49.454Z,3.30
2019-03-29T15:00:49.429Z,3.50
2019-03-29T15:01:49.394Z,3.30
2019-03-29T15:02:49.383Z,3.60
2019-03-29T15:03:49.390Z,3.40
2019-03-29T15:04:49.380Z,3.80
2019-03-29T15:05:49.369Z,3.80
2019-03-29T15:06:49.356Z,3.80
2019-03-29T15:07:49.334Z,3.80
2019-03-29T15:08:49.948Z,3.70
2019-03-29T15:09:49.325Z,3.20
2019-03-29T15:10:49.299Z,3.80
2019-03-29T15:11:49.333Z,3.90
2019-03-29T15:12:49.311Z,3.20
2019-03-29T15:13:49.265Z,3.50
2019-03-29T15:14:49.255Z,3.60
2019-03-29T15:15:49.247Z,3.70
2019-03-29T15:16:49.241Z,4.00
2019-03-29T15:17:49.242Z,3.60
2019-03-29T15:18:49.226Z,3.40
2019-03-29T15:19:49.217Z,3.20
2019-03-29T15:20:53.664Z,3.50
2019-03-29T15:21:49.179Z,3.50
2019-03-29T15:22:49.174Z,3.30
2019-03-29T15:23:49.196Z,4.00
2019-03-29T15:24:49.193Z,3.70
2019-03-29T15:25:49.136Z,3.50
2019-03-29T15:26:49.128Z,3.40
2019-03-29T15:27:49.119Z,3.70
2019-03-29T15:28:49.112Z,3.30
2019-03-29T15:29:49.120Z,3.40
2019-03-29T15:30:52.201Z,3.40
2019-03-29T15:31:49.076Z,3.30
2019-03-29T15:32:49.064Z,3.10
2019-03-29T15:33:49.053Z,3.00
2019-03-29T15:34:49.064Z,3.30
2019-03-29T15:35:49.052Z,3.50
2019-03-29T15:36:49.028Z,3.70
2019-03-29T15:37:49.012Z,3.40
2019-03-29T15:38:49.004Z,3.20
2019-03-29T15:39:48.989Z,3.10
2019-03-29T15:40:49.003Z,3.20
2019-03-29T15:41:48.971Z,3.50
2019-03-29T15:42:48.971Z,3.10
2019-03-29T15:43:48.946Z,3.00
2019-03-29T15:44:48.937Z,3.00
2019-03-29T15:45:48.943Z,2.50
2019-03-29T15:46:48.916Z,3.30
2019-03-29T15:47:48.925Z,3.60
2019-03-29T15:48:48.939Z,3.10
2019-03-29T15:49:55.988Z,3.70
2019-03-29T15:50:49.893Z,3.30
2019-03-29T15:51:48.860Z,3.10
2019-03-29T15:52:48.850Z,3.40
2019-03-29T15:53:48.839Z,3.20
2019-03-29T15:54:48.832Z,3.00
2019-03-29T15:55:48.822Z,3.20
2019-03-29T15:56:48.825Z,2.90
2019-03-29T15:57:48.820Z,3.00
2019-03-29T15:58:48.787Z,3.00
2019-03-29T15:59:48.781Z,2.50
2019-03-29T16:00:48.789Z,2.90
2019-03-29T16:01:48.761Z,2.60
2019-03-29T16:02:48.749Z,3.20
2019-03-29T16:03:48.747Z,2.40
2019-03-29T16:04:48.724Z,2.50
2019-03-29T16:05:48.731Z,2.90
2019-03-29T16:06:48.700Z,3.00
2019-03-29T16:07:48.711Z,2.90
2019-03-29T16:08:48.697Z,2.90
2019-03-29T16:09:49.075Z,2.50
2019-03-29T16:10:48.663Z,2.70
2019-03-29T16:11:48.665Z,2.60
2019-03-29T16:12:48.647Z,2.50
2019-03-29T16:13:48.650Z,2.70
2019-03-29T16:14:48.635Z,2.50
2019-03-29T16:15:48.607Z,2.40
2019-03-29T16:16:48.595Z,2.40
2019-03-29T16:17:48.586Z,2.50
2019-03-29T16:18:48.573Z,2.90
2019-03-29T16:19:48.606Z,2.40
2019-03-29T16:20:48.557Z,2.30
2019-03-29T16:21:48.545Z,2.20
2019-03-29T16:22:48.536Z,3.00
2019-03-29T16:23:48.521Z,2.90
2019-03-29T16:24:48.511Z,2.50
2019-03-29T16:25:48.526Z,2.70
2019-03-29T16:26:48.486Z,2.80
2019-03-29T16:27:48.482Z,2.60
2019-03-29T16:28:48.469Z,2.80
2019-03-29T16:29:48.457Z,2.20
2019-03-29T16:30:48.460Z,2.30
2019-03-29T16:31:48.443Z,2.60
2019-03-29T16:32:48.427Z,2.30
2019-03-29T16:33:48.416Z,2.40
2019-03-29T16:34:50.664Z,2.40
2019-03-29T16:35:48.394Z,2.40
2019-03-29T16:36:48.405Z,2.80
2019-03-29T16:37:57.027Z,2.80
2019-03-29T16:38:49.363Z,2.70
2019-03-29T16:39:48.385Z,2.90
2019-03-29T16:40:48.344Z,2.50
2019-03-29T16:41:48.333Z,3.00
2019-03-29T16:42:48.339Z,2.30
2019-03-29T16:43:48.311Z,2.30
2019-03-29T16:44:48.296Z,2.40
2019-03-29T16:45:48.562Z,2.40
2019-03-29T16:46:48.294Z,2.40
2019-03-29T16:47:48.268Z,2.60
2019-03-29T16:48:48.279Z,2.70
2019-03-29T16:49:48.253Z,2.50
2019-03-29T16:50:48.235Z,2.50
2019-03-29T16:51:48.228Z,2.40
2019-03-29T16:52:48.213Z,2.40
2019-03-29T16:53:48.210Z,2.70
2019-03-29T16:54:48.211Z,2.50
2019-03-29T16:55:48.191Z,2.40
2019-03-29T16:56:48.166Z,2.30
2019-03-29T16:57:48.158Z,2.10
2019-03-29T16:58:48.144Z,2.00
2019-03-29T16:59:48.155Z,2.20
2019-03-29T17:00:48.139Z,2.20
2019-03-29T17:01:51.146Z,2.30
2019-03-29T17:02:48.100Z,1.90
2019-03-29T17:03:48.097Z,2.30
2019-03-29T17:04:48.102Z,2.30
2019-03-29T17:05:48.072Z,2.60
2019-03-29T17:06:48.075Z,2.40
2019-03-29T17:07:48.049Z,2.50
2019-03-29T17:08:48.038Z,2.50
2019-03-29T17:09:48.043Z,2.00
2019-03-29T17:10:48.019Z,1.90
2019-03-29T17:11:48.025Z,2.20
2019-03-29T17:12:48.004Z,2.10
2019-03-29T17:13:47.985Z,2.00
2019-03-29T17:14:47.978Z,2.00
2019-03-29T17:16:00.750Z,2.10
2019-03-29T17:16:48.995Z,2.00
2019-03-29T17:17:47.944Z,2.10
2019-03-29T17:18:47.961Z,2.00
2019-03-29T17:19:47.919Z,1.90
2019-03-29T17:20:47.939Z,2.00
2019-03-29T17:21:47.932Z,2.10
2019-03-29T17:22:47.887Z,1.90
2019-03-29T17:23:47.886Z,2.00
2019-03-29T17:24:57.017Z,2.00
2019-03-29T17:25:48.857Z,2.10
2019-03-29T17:26:47.876Z,2.00
2019-03-29T17:27:47.833Z,1.70
2019-03-29T17:28:47.823Z,1.90
2019-03-29T17:29:47.820Z,2.10
2019-03-29T17:30:47.817Z,1.90
2019-03-29T17:31:47.795Z,2.10
2019-03-29T17:32:47.801Z,1.80
2019-03-29T17:33:47.768Z,2.00
2019-03-29T17:34:47.757Z,1.90
2019-03-29T17:35:47.753Z,2.00
2019-03-29T17:36:47.760Z,1.90
2019-03-29T17:37:47.751Z,2.10
2019-03-29T17:38:47.726Z,1.90
2019-03-29T17:39:47.703Z,1.90
2019-03-29T17:40:47.723Z,1.90
2019-03-29T17:41:47.688Z,2.20
2019-03-29T17:42:47.692Z,1.60
2019-03-29T17:43:47.672Z,1.90
2019-03-29T17:44:47.653Z,2.10
2019-03-29T17:45:47.659Z,2.00
2019-03-29T17:46:47.637Z,1.70